createdAt,value
2019-03-11T00:00:52.430Z,89.01
2019-03-11T00:01:52.416Z,89.11
2019-03-11T00:02:52.399Z,88.44
2019-03-11T00:03:52.388Z,88.73
2019-03-11T00:04:52.370Z,88.63
2019-03-11T00:05:52.354Z,88.63
2019-03-11T00:06:52.343Z,88.63
2019-03-11T00:07:52.326Z,88.82
2019-03-11T00:08:52.312Z,88.63
2019-03-11T00:09:52.302Z,88.73
2019-03-11T00:10:52.289Z,88.54
2019-03-11T00:11:52.269Z,88.25
2019-03-11T00:12:52.254Z,88.44
2019-03-11T00:13:52.239Z,88.54
2019-03-11T00:14:52.226Z,88.73
2019-03-11T00:15:52.208Z,88.63
2019-03-11T00:16:52.196Z,88.06
2019-03-11T00:17:52.185Z,88.54
2019-03-11T00:18:52.174Z,88.35
2019-03-11T00:19:52.148Z,87.97
2019-03-11T00:20:52.186Z,88.16
2019-03-11T00:21:52.118Z,88.35
2019-03-11T00:22:52.107Z,88.06
2019-03-11T00:23:52.090Z,88.06
2019-03-11T00:24:52.076Z,88.35
2019-03-11T00:25:52.061Z,88.06
2019-03-11T00:26:52.049Z,88.06
2019-03-11T00:27:52.035Z,88.44
2019-03-11T00:28:52.019Z,88.06
2019-03-11T00:29:52.005Z,88.35
2019-03-11T00:30:51.986Z,88.35
2019-03-11T00:31:51.972Z,88.63
2019-03-11T00:32:51.958Z,88.73
2019-03-11T00:33:51.941Z,88.73
2019-03-11T00:34:51.985Z,88.44
2019-03-11T00:35:51.915Z,88.54
2019-03-11T00:36:51.901Z,88.73
2019-03-11T00:37:51.884Z,88.73
2019-03-11T00:38:51.876Z,88.63
2019-03-11T00:39:51.857Z,88.82
2019-03-11T00:40:51.841Z,88.63
2019-03-11T00:41:51.825Z,88.54
2019-03-11T00:42:51.815Z,88.54
2019-03-11T00:43:51.801Z,88.63
2019-03-11T00:44:51.782Z,88.54
2019-03-11T00:45:51.768Z,88.06
2019-03-11T00:46:51.754Z,88.44
2019-03-11T00:48:01.298Z,87.97
2019-03-11T00:48:51.723Z,88.16
2019-03-11T00:49:51.709Z,88.25
2019-03-11T00:50:51.697Z,88.25
2019-03-11T00:51:51.679Z,88.16
2019-03-11T00:52:51.665Z,88.06
2019-03-11T00:53:51.652Z,87.97
2019-03-11T00:54:51.638Z,88.25
2019-03-11T00:55:51.622Z,88.35
2019-03-11T00:56:51.619Z,88.16
2019-03-11T00:57:51.598Z,88.25
2019-03-11T00:58:51.577Z,88.25
2019-03-11T00:59:51.563Z,88.06
2019-03-11T01:00:51.551Z,88.16
2019-03-11T01:01:51.550Z,87.87
2019-03-11T01:02:51.520Z,88.16
2019-03-11T01:03:51.262Z,88.06
2019-03-11T01:04:51.501Z,87.97
2019-03-11T01:05:51.474Z,88.25
2019-03-11T01:06:51.463Z,88.16
2019-03-11T01:07:51.462Z,87.87
2019-03-11T01:08:51.431Z,88.25
2019-03-11T01:09:51.417Z,88.16
2019-03-11T01:10:51.402Z,88.06
2019-03-11T01:11:51.386Z,88.25
2019-03-11T01:12:51.372Z,88.06
2019-03-11T01:13:51.358Z,88.35
2019-03-11T01:14:51.353Z,87.97
2019-03-11T01:15:51.330Z,87.97
2019-03-11T01:16:51.313Z,88.06
2019-03-11T01:17:51.298Z,88.35
2019-03-11T01:18:51.283Z,88.06
2019-03-11T01:19:51.270Z,87.77
2019-03-11T01:20:51.256Z,87.97
2019-03-11T01:21:51.245Z,88.44
2019-03-11T01:22:51.230Z,88.16
2019-03-11T01:23:51.210Z,88.35
2019-03-11T01:24:51.196Z,88.25
2019-03-11T01:25:51.182Z,87.87
2019-03-11T01:26:51.188Z,87.97
2019-03-11T01:27:51.155Z,88.06
2019-03-11T01:28:51.137Z,88.35
2019-03-11T01:29:51.196Z,88.73
2019-03-11T01:30:51.108Z,88.63
2019-03-11T01:31:51.092Z,88.63
2019-03-11T01:32:51.079Z,88.35
2019-03-11T01:33:51.061Z,88.73
2019-03-11T01:34:51.049Z,88.06
2019-03-11T01:35:51.037Z,88.35
2019-03-11T01:36:51.018Z,88.44
2019-03-11T01:37:51.004Z,88.44
2019-03-11T01:38:50.994Z,88.44
2019-03-11T01:39:51.015Z,88.54
2019-03-11T01:40:50.962Z,88.06
2019-03-11T01:41:50.945Z,88.73
2019-03-11T01:42:51.867Z,88.44
2019-03-11T01:43:50.921Z,88.63
2019-03-11T01:44:50.901Z,88.73
2019-03-11T01:45:50.896Z,88.54
2019-03-11T01:46:50.871Z,88.73
2019-03-11T01:47:50.857Z,88.63
2019-03-11T01:48:50.842Z,88.82
2019-03-11T01:49:50.835Z,88.54
2019-03-11T01:50:50.814Z,88.54
2019-03-11T01:51:50.798Z,88.63
2019-03-11T01:52:50.783Z,88.73
2019-03-11T01:53:50.776Z,88.44
2019-03-11T01:54:50.765Z,88.63
2019-03-11T01:55:50.497Z,88.44
2019-03-11T01:56:50.725Z,88.54
2019-03-11T01:57:50.719Z,88.06
2019-03-11T01:58:50.715Z,88.54
2019-03-11T01:59:50.681Z,88.35
2019-03-11T02:00:50.667Z,88.25
2019-03-11T02:01:51.065Z,88.54
2019-03-11T02:02:50.638Z,88.73
2019-03-11T02:03:50.626Z,88.73
2019-03-11T02:04:50.608Z,88.54
2019-03-11T02:05:50.593Z,88.54
2019-03-11T02:06:50.579Z,88.35
2019-03-11T02:07:50.568Z,88.73
2019-03-11T02:08:50.552Z,88.73
2019-03-11T02:09:50.542Z,88.73
2019-03-11T02:10:50.521Z,88.82
2019-03-11T02:11:50.510Z,88.73
2019-03-11T02:12:50.492Z,88.54
2019-03-11T02:13:50.479Z,88.54
2019-03-11T02:14:50.465Z,88.35
2019-03-11T02:15:50.450Z,88.54
2019-03-11T02:16:50.438Z,88.63
2019-03-11T02:17:50.442Z,88.73
2019-03-11T02:18:50.407Z,88.73
2019-03-11T02:19:50.394Z,88.25
2019-03-11T02:20:50.377Z,88.73
2019-03-11T02:21:50.362Z,88.73
2019-03-11T02:22:50.348Z,88.44
2019-03-11T02:23:50.335Z,88.54
2019-03-11T02:24:50.319Z,88.54
2019-03-11T02:25:50.307Z,88.44
2019-03-11T02:26:50.290Z,88.54
2019-03-11T02:27:50.275Z,88.63
2019-03-11T02:28:50.264Z,88.44
2019-03-11T02:29:50.247Z,88.63
2019-03-11T02:30:50.237Z,88.73
2019-03-11T02:31:50.218Z,88.73
2019-03-11T02:32:50.215Z,88.73
2019-03-11T02:33:50.199Z,88.63
2019-03-11T02:34:50.187Z,88.63
2019-03-11T02:35:50.169Z,88.82
2019-03-11T02:36:50.153Z,88.82
2019-03-11T02:37:50.166Z,88.63
2019-03-11T02:38:50.177Z,88.44
2019-03-11T02:39:50.109Z,88.73
2019-03-11T02:40:50.092Z,88.73
2019-03-11T02:41:50.074Z,89.01
2019-03-11T02:42:50.059Z,88.73
2019-03-11T02:43:50.046Z,88.54
2019-03-11T02:44:50.043Z,88.73
2019-03-11T02:45:50.014Z,88.44
2019-03-11T02:46:50.002Z,88.44
2019-03-11T02:47:49.990Z,88.44
2019-03-11T02:48:49.983Z,88.44
2019-03-11T02:49:49.962Z,88.63
2019-03-11T02:50:49.954Z,88.44
2019-03-11T02:51:49.929Z,88.73
2019-03-11T02:52:49.917Z,88.78
2019-03-11T02:53:49.901Z,88.68
2019-03-11T02:54:49.953Z,88.68
2019-03-11T02:55:53.215Z,88.68
2019-03-11T02:56:49.858Z,89.01
2019-03-11T02:57:49.840Z,88.87
2019-03-11T02:58:49.827Z,88.87
2019-03-11T02:59:49.813Z,88.68
2019-03-11T03:00:49.793Z,88.96
2019-03-11T03:01:49.780Z,88.59
2019-03-11T03:02:49.767Z,88.96
2019-03-11T03:03:49.748Z,88.59
2019-03-11T03:04:49.731Z,88.59
2019-03-11T03:05:49.719Z,88.59
2019-03-11T03:06:49.710Z,89.06
2019-03-11T03:07:49.690Z,89.34
2019-03-11T03:08:49.673Z,89.44
2019-03-11T03:09:49.660Z,89.15
2019-03-11T03:10:49.651Z,89.44
2019-03-11T03:11:49.634Z,89.44
2019-03-11T03:12:49.616Z,89.25
2019-03-11T03:13:49.603Z,89.15
2019-03-11T03:14:49.585Z,89.15
2019-03-11T03:15:49.583Z,89.06
2019-03-11T03:16:49.569Z,88.87
2019-03-11T03:17:49.567Z,89.15
2019-03-11T03:18:49.531Z,88.87
2019-03-11T03:19:49.510Z,88.87
2019-03-11T03:20:49.506Z,89.06
2019-03-11T03:21:49.483Z,88.68
2019-03-11T03:22:49.477Z,88.68
2019-03-11T03:23:49.458Z,89.06
2019-03-11T03:24:49.434Z,88.68
2019-03-11T03:25:49.421Z,88.82
2019-03-11T03:26:49.404Z,89.15
2019-03-11T03:27:49.639Z,88.78
2019-03-11T03:28:49.374Z,89.11
2019-03-11T03:29:49.375Z,88.87
2019-03-11T03:30:49.380Z,88.78
2019-03-11T03:31:49.347Z,89.11
2019-03-11T03:32:49.364Z,89.01
2019-03-11T03:33:49.311Z,88.92
2019-03-11T03:34:49.290Z,88.82
2019-03-11T03:35:49.274Z,89.11
2019-03-11T03:36:49.254Z,88.82
2019-03-11T03:37:49.242Z,88.92
2019-03-11T03:38:49.244Z,88.92
2019-03-11T03:39:49.213Z,89.01
2019-03-11T03:40:49.203Z,89.01
2019-03-11T03:41:49.182Z,89.11
2019-03-11T03:42:49.310Z,89.11
2019-03-11T03:43:49.194Z,88.92
2019-03-11T03:44:49.160Z,88.73
2019-03-11T03:45:48.890Z,89.2
2019-03-11T03:46:49.115Z,89.11
2019-03-11T03:47:49.090Z,89.2
2019-03-11T03:48:49.412Z,89.11
2019-03-11T03:49:49.124Z,89.29
2019-03-11T03:50:49.050Z,89.29
2019-03-11T03:51:49.032Z,89.2
2019-03-11T03:52:49.018Z,89.01
2019-03-11T03:53:49.034Z,89.29
2019-03-11T03:54:48.989Z,89.2
2019-03-11T03:55:48.988Z,89.11
2019-03-11T03:56:48.967Z,89.29
2019-03-11T03:57:48.945Z,89.29
2019-03-11T03:58:48.966Z,89.29
2019-03-11T03:59:48.915Z,89.48
2019-03-11T04:00:48.917Z,89.29
2019-03-11T04:01:48.917Z,89.2
2019-03-11T04:02:48.877Z,89.2
2019-03-11T04:03:48.860Z,89.2
2019-03-11T04:04:48.840Z,89.11
2019-03-11T04:05:48.876Z,88.73
2019-03-11T04:06:48.577Z,88.73
2019-03-11T04:07:48.802Z,89.01
2019-03-11T04:08:48.787Z,89.01
2019-03-11T04:09:49.076Z,88.73
2019-03-11T04:10:48.767Z,88.54
2019-03-11T04:11:48.741Z,88.82
2019-03-11T04:12:48.501Z,88.54
2019-03-11T04:13:48.708Z,88.54
2019-03-11T04:14:48.694Z,88.54
2019-03-11T04:15:48.679Z,88.92
2019-03-11T04:16:48.667Z,88.82
2019-03-11T04:17:48.662Z,88.54
2019-03-11T04:18:48.634Z,88.73
2019-03-11T04:19:48.619Z,88.54
2019-03-11T04:20:48.612Z,88.82
2019-03-11T04:21:48.589Z,88.92
2019-03-11T04:22:48.582Z,88.73
2019-03-11T04:23:48.570Z,88.82
2019-03-11T04:24:48.547Z,88.82
2019-03-11T04:25:48.533Z,88.92
2019-03-11T04:26:48.520Z,88.54
2019-03-11T04:27:48.506Z,88.73
2019-03-11T04:28:48.538Z,88.73
2019-03-11T04:29:48.471Z,88.92
2019-03-11T04:30:48.457Z,88.82
2019-03-11T04:31:48.447Z,88.92
2019-03-11T04:32:48.443Z,88.54
2019-03-11T04:33:48.412Z,88.54
2019-03-11T04:34:48.403Z,88.54
2019-03-11T04:35:48.397Z,89.01
2019-03-11T04:36:48.366Z,88.73
2019-03-11T04:37:48.353Z,88.73
2019-03-11T04:38:48.338Z,88.73
2019-03-11T04:39:48.328Z,88.54
2019-03-11T04:40:48.308Z,88.82
2019-03-11T04:41:48.293Z,88.73
2019-03-11T04:42:48.280Z,88.73
2019-03-11T04:43:48.263Z,88.54
2019-03-11T04:44:48.249Z,88.92
2019-03-11T04:45:48.234Z,88.73
2019-03-11T04:46:48.220Z,88.73
2019-03-11T04:47:48.279Z,88.54
2019-03-11T04:48:48.195Z,89.11
2019-03-11T04:49:48.189Z,89.01
2019-03-11T04:50:48.162Z,88.82
2019-03-11T04:51:48.151Z,88.73
2019-03-11T04:52:47.891Z,88.73
2019-03-11T04:53:48.117Z,88.92
2019-03-11T04:54:48.103Z,89.11
2019-03-11T04:55:48.104Z,88.92
2019-03-11T04:56:48.073Z,89.01
2019-03-11T04:57:48.063Z,88.73
2019-03-11T04:58:48.057Z,88.63
2019-03-11T04:59:48.032Z,88.92
2019-03-11T05:00:48.023Z,88.35
2019-03-11T05:01:48.004Z,88.54
2019-03-11T05:02:47.988Z,88.54
2019-03-11T05:03:48.768Z,88.44
2019-03-11T05:04:47.960Z,88.63
2019-03-11T05:05:47.950Z,88.54
2019-03-11T05:06:47.929Z,88.44
2019-03-11T05:07:47.914Z,88.54
2019-03-11T05:08:47.901Z,88.63
2019-03-11T05:09:47.883Z,88.54
2019-03-11T05:10:47.872Z,88.73
2019-03-11T05:11:47.851Z,88.54
2019-03-11T05:12:47.842Z,88.82
2019-03-11T05:13:47.821Z,88.82
2019-03-11T05:14:47.805Z,88.54
2019-03-11T05:15:47.790Z,88.54
2019-03-11T05:16:47.779Z,88.73
2019-03-11T05:17:50.733Z,88.54
2019-03-11T05:18:47.747Z,88.63
2019-03-11T05:19:47.733Z,88.82
2019-03-11T05:20:47.718Z,88.35
2019-03-11T05:21:47.707Z,88.73
2019-03-11T05:22:47.694Z,88.63
2019-03-11T05:23:47.678Z,88.73
2019-03-11T05:24:47.662Z,88.63
2019-03-11T05:25:47.652Z,88.73
2019-03-11T05:26:47.634Z,88.63
2019-03-11T05:27:47.615Z,88.63
2019-03-11T05:28:49.311Z,88.92
2019-03-11T05:29:47.589Z,88.92
2019-03-11T05:30:47.577Z,88.92
2019-03-11T05:31:47.560Z,88.44
2019-03-11T05:32:47.563Z,88.73
2019-03-11T05:33:47.540Z,88.35
2019-03-11T05:34:47.515Z,88.77
2019-03-11T05:35:47.502Z,88.58
2019-03-11T05:36:47.490Z,88.58
2019-03-11T05:37:47.475Z,88.77
2019-03-11T05:38:47.470Z,88.58
2019-03-11T05:39:47.447Z,88.77
2019-03-11T05:40:47.428Z,88.39
2019-03-11T05:41:47.418Z,88.2
2019-03-11T05:42:47.413Z,88.1
2019-03-11T05:43:47.385Z,88.58
2019-03-11T05:44:47.371Z,88.39
2019-03-11T05:45:47.368Z,88.39
2019-03-11T05:46:47.352Z,88.2
2019-03-11T05:47:47.352Z,88.68
2019-03-11T05:48:47.320Z,88.39
2019-03-11T05:49:47.309Z,88.39
2019-03-11T05:50:47.296Z,88.2
2019-03-11T05:51:47.282Z,88.2
2019-03-11T05:52:47.261Z,87.92
2019-03-11T05:53:47.249Z,88.29
2019-03-11T05:54:47.233Z,88.39
2019-03-11T05:55:47.398Z,88.29
2019-03-11T05:56:47.203Z,88.39
2019-03-11T05:57:46.950Z,88.58
2019-03-11T05:58:47.176Z,88.2
2019-03-11T05:59:47.165Z,88.29
2019-03-11T06:00:47.148Z,88.2
2019-03-11T06:01:47.133Z,88.39
2019-03-11T06:02:47.119Z,88.48
2019-03-11T06:03:47.107Z,88.2
2019-03-11T06:04:47.096Z,88.01
2019-03-11T06:05:47.076Z,88.01
2019-03-11T06:06:47.063Z,88.2
2019-03-11T06:07:47.055Z,88.01
2019-03-11T06:08:47.033Z,88.01
2019-03-11T06:09:47.020Z,88.2
2019-03-11T06:10:47.005Z,88.2
2019-03-11T06:11:46.990Z,88.29
2019-03-11T06:12:46.982Z,87.82
2019-03-11T06:13:46.962Z,87.92
2019-03-11T06:14:46.953Z,87.73
2019-03-11T06:15:46.936Z,87.73
2019-03-11T06:16:46.924Z,87.73
2019-03-11T06:17:47.143Z,87.54
2019-03-11T06:18:47.204Z,87.73
2019-03-11T06:19:46.878Z,87.73
2019-03-11T06:20:46.864Z,87.63
2019-03-11T06:21:46.849Z,87.63
2019-03-11T06:22:46.837Z,87.73
2019-03-11T06:23:46.828Z,87.73
2019-03-11T06:24:46.809Z,87.54
2019-03-11T06:25:46.797Z,87.54
2019-03-11T06:26:46.783Z,87.63
2019-03-11T06:27:46.768Z,87.54
2019-03-11T06:28:46.756Z,87.82
2019-03-11T06:29:46.740Z,87.54
2019-03-11T06:30:46.729Z,87.63
2019-03-11T06:31:46.711Z,87.54
2019-03-11T06:32:46.696Z,87.73
2019-03-11T06:33:46.682Z,87.82
2019-03-11T06:34:46.670Z,87.82
2019-03-11T06:35:46.657Z,87.68
2019-03-11T06:36:46.641Z,87.63
2019-03-11T06:37:46.629Z,87.87
2019-03-11T06:38:46.613Z,87.96
2019-03-11T06:39:46.604Z,88.06
2019-03-11T06:40:48.437Z,87.63
2019-03-11T06:41:46.573Z,87.92
2019-03-11T06:42:46.561Z,88.01
2019-03-11T06:43:46.548Z,87.68
2019-03-11T06:44:46.532Z,87.96
2019-03-11T06:45:46.518Z,87.39
2019-03-11T06:46:48.535Z,87.58
2019-03-11T06:47:46.490Z,87.58
2019-03-11T06:48:46.480Z,87.49
2019-03-11T06:49:46.465Z,87.49
2019-03-11T06:50:46.451Z,87.39
2019-03-11T06:51:46.438Z,87.77
2019-03-11T06:52:46.425Z,87.2
2019-03-11T06:53:46.412Z,87.49
2019-03-11T06:54:46.396Z,87.3
2019-03-11T06:55:46.384Z,87.2
2019-03-11T06:56:46.373Z,87.2
2019-03-11T06:57:46.360Z,87.2
2019-03-11T06:58:46.354Z,87.96
2019-03-11T06:59:46.331Z,87.96
2019-03-11T07:00:46.318Z,87.39
2019-03-11T07:01:46.304Z,87.58
2019-03-11T07:02:46.292Z,87.3
2019-03-11T07:03:46.278Z,87.3
2019-03-11T07:04:46.266Z,88.24
2019-03-11T07:05:46.009Z,87.58
2019-03-11T07:06:46.249Z,87.49
2019-03-11T07:07:46.234Z,87.2
2019-03-11T07:08:46.231Z,87.2
2019-03-11T07:09:46.204Z,87.3
2019-03-11T07:10:46.189Z,87.01
2019-03-11T07:11:46.178Z,87.01
2019-03-11T07:12:46.168Z,87.39
2019-03-11T07:13:46.152Z,87.3
2019-03-11T07:14:46.138Z,87.05
2019-03-11T07:15:46.133Z,87.05
2019-03-11T07:16:46.115Z,86.58
2019-03-11T07:17:46.146Z,86.72
2019-03-11T07:18:46.095Z,86.82
2019-03-11T07:19:46.078Z,86.82
2019-03-11T07:20:46.067Z,86.67
2019-03-11T07:21:46.060Z,86.57
2019-03-11T07:22:46.052Z,86.38
2019-03-11T07:23:46.038Z,85.62
2019-03-11T07:24:46.030Z,86
2019-03-11T07:25:46.025Z,86.57
2019-03-11T07:26:46.011Z,86.57
2019-03-11T07:27:45.999Z,85.72
2019-03-11T07:28:45.995Z,85.66
2019-03-11T07:29:45.981Z,85.19
2019-03-11T07:30:45.972Z,85.1
2019-03-11T07:31:45.967Z,85.33
2019-03-11T07:32:45.958Z,84.76
2019-03-11T07:33:45.951Z,85.04
2019-03-11T07:34:45.939Z,85.42
2019-03-11T07:35:45.956Z,85.66
2019-03-11T07:36:45.926Z,84.7
2019-03-11T07:37:45.921Z,85.37
2019-03-11T07:38:45.910Z,84.89
2019-03-11T07:39:45.903Z,84.7
2019-03-11T07:40:45.895Z,85.75
2019-03-11T07:41:45.889Z,84.99
2019-03-11T07:42:45.880Z,84.89
2019-03-11T07:43:45.874Z,86.42
2019-03-11T07:44:45.867Z,86.13
2019-03-11T07:45:45.860Z,85.66
2019-03-11T07:46:47.988Z,85.37
2019-03-11T07:47:45.848Z,84.7
2019-03-11T07:48:45.842Z,85.75
2019-03-11T07:49:45.836Z,84.75
2019-03-11T07:50:45.828Z,84.94
2019-03-11T07:51:45.824Z,84.46
2019-03-11T07:52:45.816Z,84.36
2019-03-11T07:53:45.811Z,84.36
2019-03-11T07:54:45.816Z,84.08
2019-03-11T07:55:45.803Z,84.46
2019-03-11T07:56:45.793Z,83.8
2019-03-11T07:57:45.796Z,84.56
2019-03-11T07:58:45.791Z,84.46
2019-03-11T07:59:45.777Z,89.61
2019-03-11T08:00:56.258Z,86.08
2019-03-11T08:01:45.826Z,87.03
2019-03-11T08:02:45.756Z,84.65
2019-03-11T08:03:45.747Z,84.46
2019-03-11T08:04:45.741Z,84.84
2019-03-11T08:05:45.735Z,84.46
2019-03-11T08:06:45.727Z,83.98
2019-03-11T08:07:45.720Z,83.32
2019-03-11T08:08:45.713Z,83.89
2019-03-11T08:09:45.466Z,83.89
2019-03-11T08:10:45.698Z,84.46
2019-03-11T08:11:45.692Z,85.7
2019-03-11T08:12:45.685Z,84.56
2019-03-11T08:13:46.185Z,84.46
2019-03-11T08:14:45.664Z,83.98
2019-03-11T08:15:45.658Z,83.94
2019-03-11T08:16:45.677Z,83.75
2019-03-11T08:17:45.650Z,84.42
2019-03-11T08:18:45.636Z,85.08
2019-03-11T08:19:45.623Z,85.37
2019-03-11T08:20:45.619Z,86.9
2019-03-11T08:21:45.609Z,85.66
2019-03-11T08:22:45.598Z,84.7
2019-03-11T08:23:45.601Z,84.89
2019-03-11T08:24:45.602Z,84.56
2019-03-11T08:25:45.630Z,84.66
2019-03-11T08:26:45.567Z,85.42
2019-03-11T08:27:45.552Z,86.57
2019-03-11T08:28:45.542Z,89.42
2019-03-11T08:29:45.531Z,87.71
2019-03-11T08:30:45.521Z,86.38
2019-03-11T08:31:45.514Z,86.18
2019-03-11T08:32:45.505Z,85.66
2019-03-11T08:33:45.493Z,85.19
2019-03-11T08:34:45.483Z,84.91
2019-03-11T08:35:45.475Z,85.47
2019-03-11T08:36:45.467Z,84.81
2019-03-11T08:37:45.452Z,85.47
2019-03-11T08:38:45.445Z,84.81
2019-03-11T08:39:45.433Z,85.57
2019-03-11T08:40:45.545Z,86.8
2019-03-11T08:41:45.414Z,86.8
2019-03-11T08:42:45.401Z,85.38
2019-03-11T08:43:45.390Z,85.57
2019-03-11T08:44:45.379Z,87.19
2019-03-11T08:45:45.369Z,85.47
2019-03-11T08:46:47.137Z,84.62
2019-03-11T08:47:45.349Z,84.52
2019-03-11T08:48:45.336Z,85.47
2019-03-11T08:49:45.326Z,86.43
2019-03-11T08:50:45.317Z,85.19
2019-03-11T08:51:45.304Z,85.47
2019-03-11T08:52:45.305Z,85.47
2019-03-11T08:53:45.284Z,85.19
2019-03-11T08:54:45.274Z,85.28
2019-03-11T08:55:45.270Z,85.38
2019-03-11T08:56:45.250Z,85.57
2019-03-11T08:57:45.243Z,85.38
2019-03-11T08:58:45.231Z,85.76
2019-03-11T08:59:45.217Z,85.28
2019-03-11T09:00:45.210Z,85.47
2019-03-11T09:01:45.196Z,86.61
2019-03-11T09:02:45.186Z,85.47
2019-03-11T09:03:47.640Z,85.62
2019-03-11T09:04:45.162Z,85.81
2019-03-11T09:05:45.154Z,85.24
2019-03-11T09:06:45.139Z,85.34
2019-03-11T09:07:45.130Z,85.53
2019-03-11T09:08:45.119Z,85.43
2019-03-11T09:09:45.106Z,86.38
2019-03-11T09:10:45.099Z,85.62
2019-03-11T09:11:45.084Z,85.81
2019-03-11T09:12:45.075Z,85.53
2019-03-11T09:13:45.062Z,86.1
2019-03-11T09:14:45.049Z,89.8
2019-03-11T09:15:45.040Z,88.38
2019-03-11T09:16:45.027Z,86.67
2019-03-11T09:17:45.013Z,86
2019-03-11T09:18:45.004Z,86.86
2019-03-11T09:19:44.993Z,86.95
2019-03-11T09:20:44.979Z,86.05
2019-03-11T09:21:44.967Z,85.39
2019-03-11T09:22:44.957Z,85.72
2019-03-11T09:23:44.947Z,85.72
2019-03-11T09:24:44.932Z,85.62
2019-03-11T09:25:44.924Z,85.91
2019-03-11T09:26:44.928Z,85.81
2019-03-11T09:27:44.897Z,85.62
2019-03-11T09:28:44.888Z,85.62
2019-03-11T09:29:44.910Z,86.24
2019-03-11T09:30:44.865Z,86.14
2019-03-11T09:31:44.852Z,86.43
2019-03-11T09:32:44.843Z,85.76
2019-03-11T09:33:44.830Z,85.19
2019-03-11T09:34:44.820Z,85.19
2019-03-11T09:35:44.812Z,84.62
2019-03-11T09:36:44.798Z,85.24
2019-03-11T09:37:44.788Z,85
2019-03-11T09:38:44.774Z,84.62
2019-03-11T09:39:44.764Z,84.62
2019-03-11T09:40:44.753Z,85.19
2019-03-11T09:41:44.743Z,84.62
2019-03-11T09:42:44.735Z,85
2019-03-11T09:43:44.811Z,85.47
2019-03-11T09:44:44.713Z,84.81
2019-03-11T09:45:44.701Z,84.91
2019-03-11T09:46:44.691Z,84.85
2019-03-11T09:47:44.436Z,85.42
2019-03-11T09:48:47.359Z,85.04
2019-03-11T09:49:44.659Z,84.66
2019-03-11T09:50:44.647Z,84.76
2019-03-11T09:51:44.640Z,84.76
2019-03-11T09:52:44.630Z,84.76
2019-03-11T09:53:44.376Z,84.66
2019-03-11T09:54:44.604Z,84.85
2019-03-11T09:55:44.621Z,84.85
2019-03-11T09:56:46.113Z,85.24
2019-03-11T09:57:44.578Z,84.66
2019-03-11T09:58:44.566Z,84.56
2019-03-11T09:59:44.553Z,84.47
2019-03-11T10:00:44.541Z,84.38
2019-03-11T10:01:44.531Z,85.04
2019-03-11T10:02:54.661Z,87.32
2019-03-11T10:03:44.513Z,85.61
2019-03-11T10:04:44.498Z,87.13
2019-03-11T10:05:44.491Z,90.18
2019-03-11T10:06:44.482Z,86.85
2019-03-11T10:07:44.517Z,85.86
2019-03-11T10:08:44.462Z,85.24
2019-03-11T10:09:44.450Z,85.04
2019-03-11T10:10:44.441Z,84.56
2019-03-11T10:11:44.429Z,84.85
2019-03-11T10:12:44.419Z,85.33
2019-03-11T10:13:44.408Z,84.66
2019-03-11T10:14:44.400Z,84.56
2019-03-11T10:15:44.405Z,84.66
2019-03-11T10:16:44.376Z,84.66
2019-03-11T10:17:44.370Z,85.04
2019-03-11T10:18:44.353Z,84.56
2019-03-11T10:19:44.343Z,85.04
2019-03-11T10:20:44.336Z,84.19
2019-03-11T10:21:44.326Z,84.38
2019-03-11T10:22:44.311Z,84.28
2019-03-11T10:23:44.301Z,84.95
2019-03-11T10:24:44.292Z,84.56
2019-03-11T10:25:44.286Z,85.08
2019-03-11T10:26:44.029Z,85.37
2019-03-11T10:27:44.274Z,85.6
2019-03-11T10:28:44.256Z,85.7
2019-03-11T10:29:44.241Z,86.36
2019-03-11T10:30:44.229Z,86.12
2019-03-11T10:31:44.230Z,86.32
2019-03-11T10:32:44.209Z,84.98
2019-03-11T10:33:44.200Z,84.03
2019-03-11T10:34:44.195Z,83.74
2019-03-11T10:35:44.181Z,85.02
2019-03-11T10:36:44.182Z,85.88
2019-03-11T10:37:44.163Z,82.17
2019-03-11T10:38:44.158Z,81.12
2019-03-11T10:39:44.460Z,82.07
2019-03-11T10:40:44.140Z,82.4
2019-03-11T10:41:44.129Z,82.2
2019-03-11T10:42:44.124Z,81.63
2019-03-11T10:43:44.114Z,85.73
2019-03-11T10:44:44.102Z,84.07
2019-03-11T10:45:44.116Z,85.69
2019-03-11T10:46:45.011Z,83.69
2019-03-11T10:47:44.082Z,87.5
2019-03-11T10:48:44.069Z,86.69
2019-03-11T10:49:44.060Z,86.98
2019-03-11T10:50:44.114Z,86.51
2019-03-11T10:51:44.043Z,83.84
2019-03-11T10:52:44.037Z,83.07
2019-03-11T10:53:44.077Z,84.12
2019-03-11T10:54:44.019Z,84.31
2019-03-11T10:55:44.015Z,88.41
2019-03-11T10:56:44.001Z,89.55
2019-03-11T10:57:44.003Z,88.12
2019-03-11T10:58:43.990Z,85.6
2019-03-11T10:59:43.975Z,89.7
2019-03-11T11:00:43.967Z,85.8
2019-03-11T11:01:43.958Z,84.94
2019-03-11T11:02:43.950Z,84.46
2019-03-11T11:03:43.941Z,85.32
2019-03-11T11:04:43.930Z,84.27
2019-03-11T11:05:43.921Z,83.89
2019-03-11T11:06:43.913Z,87.89
2019-03-11T11:07:43.906Z,87.89
2019-03-11T11:08:43.894Z,86.27
2019-03-11T11:09:43.888Z,85.7
2019-03-11T11:10:43.875Z,87.23
2019-03-11T11:11:43.869Z,88.75
2019-03-11T11:12:43.858Z,89.98
2019-03-11T11:13:43.847Z,85.94
2019-03-11T11:14:43.838Z,84.75
2019-03-11T11:15:43.828Z,87.79
2019-03-11T11:16:46.341Z,83.51
2019-03-11T11:17:43.816Z,83.51
2019-03-11T11:18:43.807Z,82.75
2019-03-11T11:19:43.795Z,82.56
2019-03-11T11:20:43.789Z,82.75
2019-03-11T11:21:43.773Z,83.55
2019-03-11T11:22:43.764Z,82.03
2019-03-11T11:23:43.752Z,85.93
2019-03-11T11:24:43.749Z,91.84
2019-03-11T11:25:43.736Z,88.31
2019-03-11T11:26:43.727Z,83.84
2019-03-11T11:27:43.719Z,81.84
2019-03-11T11:28:43.720Z,81.65
2019-03-11T11:29:43.702Z,82.07
2019-03-11T11:30:43.692Z,81.68
2019-03-11T11:31:43.442Z,81.78
2019-03-11T11:32:43.674Z,83.4
2019-03-11T11:33:43.667Z,82.17
2019-03-11T11:34:43.657Z,82.59
2019-03-11T11:35:43.653Z,81.35
2019-03-11T11:36:43.644Z,81.92
2019-03-11T11:37:43.634Z,81.54
2019-03-11T11:38:43.626Z,83.06
2019-03-11T11:39:43.617Z,80.96
2019-03-11T11:40:43.608Z,81.25
2019-03-11T11:41:43.603Z,82.11
2019-03-11T11:42:43.595Z,81.15
2019-03-11T11:43:43.587Z,83.54
2019-03-11T11:44:43.577Z,89.93
2019-03-11T11:45:43.570Z,88.02
2019-03-11T11:46:43.565Z,91.27
2019-03-11T11:47:43.555Z,88.21
2019-03-11T11:48:43.547Z,93.7
2019-03-11T11:49:43.539Z,89.31
2019-03-11T11:50:43.535Z,90.08
2019-03-11T11:51:43.522Z,95.03
2019-03-11T11:52:43.522Z,90.31
2019-03-11T11:53:43.509Z,93.27
2019-03-11T11:54:43.516Z,91.55
2019-03-11T11:55:43.263Z,91.31
2019-03-11T11:56:43.482Z,91.13
2019-03-11T11:57:43.476Z,91.41
2019-03-11T11:58:43.465Z,90.46
2019-03-11T11:59:53.437Z,90.08
2019-03-11T12:00:43.450Z,90.46
2019-03-11T12:01:43.437Z,89.51
2019-03-11T12:02:43.436Z,90.42
2019-03-11T12:03:43.425Z,92.99
2019-03-11T12:04:43.413Z,90.61
2019-03-11T12:05:43.163Z,95.46
2019-03-11T12:06:43.392Z,95.08
2019-03-11T12:07:43.403Z,91.65
2019-03-11T12:08:43.386Z,91.75
2019-03-11T12:09:43.367Z,91.8
2019-03-11T12:10:43.354Z,91.89
2019-03-11T12:11:43.357Z,91.8
2019-03-11T12:12:43.334Z,90.08
2019-03-11T12:13:43.324Z,92.84
2019-03-11T12:14:43.317Z,90.37
2019-03-11T12:15:43.309Z,89.32
2019-03-11T12:16:43.306Z,95.12
2019-03-11T12:17:43.296Z,93.13
2019-03-11T12:18:43.279Z,92.46
2019-03-11T12:19:43.275Z,91.28
2019-03-11T12:20:43.254Z,91.66
2019-03-11T12:21:43.313Z,90.99
2019-03-11T12:22:45.247Z,93.65
2019-03-11T12:23:48.896Z,94.32
2019-03-11T12:24:43.212Z,91.75
2019-03-11T12:25:43.206Z,91.61
2019-03-11T12:26:43.191Z,90.85
2019-03-11T12:27:52.960Z,90.09
2019-03-11T12:28:43.170Z,91.52
2019-03-11T12:29:43.160Z,91.33
2019-03-11T12:30:43.147Z,91.71
2019-03-11T12:31:43.138Z,92.56
2019-03-11T12:32:43.128Z,91.42
2019-03-11T12:33:43.115Z,91.52
2019-03-11T12:34:43.107Z,92.27
2019-03-11T12:35:43.093Z,90.94
2019-03-11T12:36:43.080Z,90.66
2019-03-11T12:37:43.071Z,90.75
2019-03-11T12:38:43.060Z,89.76
2019-03-11T12:39:43.046Z,89.33
2019-03-11T12:40:43.035Z,89.52
2019-03-11T12:41:43.023Z,88.76
2019-03-11T12:42:43.011Z,87.62
2019-03-11T12:43:43.002Z,88.95
2019-03-11T12:44:42.990Z,86.76
2019-03-11T12:45:42.980Z,85.72
2019-03-11T12:46:42.965Z,85.05
2019-03-11T12:47:42.958Z,85.34
2019-03-11T12:48:42.942Z,85.15
2019-03-11T12:49:42.935Z,85.05
2019-03-11T12:50:42.920Z,84.39
2019-03-11T12:51:52.209Z,84.72
2019-03-11T12:52:42.901Z,83.95
2019-03-11T12:53:42.886Z,83.86
2019-03-11T12:54:42.883Z,83.95